Time;durP1;ratioP1;P1;durP2;ratioP2;P2;SDS_P1;SDS_P2;PMS_P1;PMS_P2;Temp;Humidity;BMP_temperature;BMP_pressure;BME280_temperature;BME280_humidity;BME280_pressure;Samples;Min_cycle;Max_cycle;Signal;HPM_P1;HPM_P2
2023/02/10 00:07:47;;;;;;;49.22;26.90;;;5.80;8.20;;;;;;6410619;22;20196;-85
2023/02/10 01:07:05;;;;;;;55.40;29.98;;;5.80;99.90;;;;;;6347672;22;20179;-85
2023/02/10 01:33:34;;;;;;;;;;;;;;;;;;;;;
2023/02/10 01:37:15;;;;;;;;;;;;;;;;;;;;;
2023/02/10 01:39:48;;;;;;;55.42;28.33;;;5.70;1.00;;;;;;6282973;22;20946;-85
2023/02/10 01:46:01;;;;;;;46.05;25.95;;;5.60;1.00;;;;;;6338583;22;20763;-85
2023/02/10 01:48:47;;;;;;;50.72;29.85;;;5.60;1.00;;;;;;6315621;22;20147;-86
2023/02/10 01:51:49;;;;;;;;;;;;;;;;;;;;;
2023/02/10 01:54:55;;;;;;;52.67;29.05;;;5.60;1.00;;;;;;6341991;22;20643;-85
2023/02/10 01:58:15;;;;;;;45.47;26.92;;;5.70;1.00;;;;;;6315412;22;20185;-85
2023/02/10 02:04:16;;;;;;;48.85;27.58;;;5.70;1.00;;;;;;6330584;22;20183;-85
2023/02/10 02:07:08;;;;;;;47.90;26.58;;;5.80;1.00;;;;;;6309485;22;20178;-85
2023/02/10 02:09:51;;;;;;;49.72;28.35;;;5.80;1.00;;;;;;6311040;22;20213;-85
2023/02/10 02:13:06;;;;;;;;;;;;;;;;;;;;;
2023/02/10 02:16:03;;;;;;;53.22;28.00;;;5.90;1.00;;;;;;6340946;22;20266;-86
2023/02/10 02:25:11;;;;;;;51.35;29.05;;;5.90;1.00;;;;;;6357304;22;20558;-85
2023/02/10 02:31:32;;;;;;;51.97;26.35;;;5.90;1.00;;;;;;6276932;22;20163;-85
2023/02/10 03:23:50;;;;;;;48.08;29.00;;;5.50;99.90;;;;;;6359600;22;20212;-86
2023/02/10 03:27:05;;;;;;;53.30;28.38;;;5.40;99.90;;;;;;6333044;22;20170;-85
2023/02/10 03:33:07;;;;;;;54.13;26.63;;;5.20;99.90;;;;;;6371720;22;20607;-85
2023/02/10 04:18:18;;;;;;;;;;;;;;;;;;;;;
2023/02/10 04:27:58;;;;;;;;;;;;;;;;;;;;;
2023/02/10 05:49:43;;;;;;;;;;;;;;;;;;;;;
2023/02/10 07:01:14;;;;;;;54.95;27.40;;;3.00;99.90;;;;;;6346396;22;20223;-85
2023/02/10 07:04:03;;;;;;;57.78;28.95;;;3.10;99.90;;;;;;6349180;22;20529;-87
2023/02/10 07:06:37;;;;;;;48.35;27.77;;;3.30;99.90;;;;;;6340956;22;20174;-87
2023/02/10 07:09:19;;;;;;;46.42;26.10;;;3.40;48.80;;;;;;6342299;22;20172;-87
2023/02/10 07:12:05;;;;;;;51.28;27.30;;;3.50;1.00;;;;;;6371044;22;20138;-87
2023/02/10 07:14:49;;;;;;;49.45;25.45;;;3.70;99.90;;;;;;6342721;22;20185;-87
2023/02/10 07:17:39;;;;;;;51.60;28.10;;;3.80;20.50;;;;;;6370675;22;20141;-86
2023/02/10 07:20:10;;;;;;;51.03;25.63;;;3.90;1.00;;;;;;6370351;22;20157;-86
2023/02/10 07:22:35;;;;;;;55.25;28.38;;;4.00;99.90;;;;;;6344625;22;20187;-86
2023/02/10 07:25:01;;;;;;;52.67;26.87;;;4.00;52.70;;;;;;6371843;22;20215;-87
2023/02/10 07:27:27;;;;;;;47.97;26.03;;;4.10;1.00;;;;;;6345292;22;20162;-86
2023/02/10 07:29:52;;;;;;;46.90;27.23;;;4.20;1.00;;;;;;6344325;22;20165;-87
2023/02/10 07:32:45;;;;;;;52.43;27.37;;;4.20;99.90;;;;;;6373428;22;20146;-86
2023/02/10 07:35:20;;;;;;;47.53;24.58;;;4.30;99.90;;;;;;6345722;22;20215;-86
2023/02/10 07:38:05;;;;;;;54.28;27.08;;;4.40;99.90;;;;;;6373120;22;20145;-87
2023/02/10 07:40:34;;;;;;;51.70;27.55;;;4.70;99.90;;;;;;6371923;22;20130;-87
2023/02/10 07:43:00;;;;;;;46.90;27.88;;;5.30;1.00;;;;;;6345037;22;20155;-87
2023/02/10 07:45:35;;;;;;;49.37;25.73;;;6.00;99.90;;;;;;6344644;22;21125;-87
2023/02/10 07:48:10;;;;;;;48.65;27.75;;;6.90;1.00;;;;;;6378102;22;20134;-84
2023/02/10 07:50:36;;;;;;;52.22;26.48;;;7.70;99.90;;;;;;6380200;22;20146;-82
2023/02/10 07:53:06;;;;;;;40.97;25.17;;;8.20;1.00;;;;;;6353563;22;20185;-82
2023/02/10 07:55:50;;;;;;;49.95;27.73;;;8.70;1.00;;;;;;6354092;22;20318;-82
2023/02/10 07:58:24;;;;;;;45.03;25.90;;;9.20;1.00;;;;;;6354690;22;20166;-83
2023/02/10 08:00:50;;;;;;;44.77;25.00;;;9.90;1.00;;;;;;6382516;22;20515;-83
2023/02/10 08:03:23;;;;;;;43.20;26.50;;;10.60;1.00;;;;;;6355260;22;20389;-83
2023/02/10 08:05:58;;;;;;;46.10;26.27;;;11.50;99.90;;;;;;6355411;22;20170;-83
2023/02/10 08:08:38;;;;;;;43.03;25.97;;;12.40;99.90;;;;;;6352287;22;20737;-84
2023/02/10 08:11:04;;;;;;;44.20;26.60;;;13.30;99.90;;;;;;6381269;22;20359;-83
2023/02/10 08:13:34;;;;;;;40.70;27.10;;;14.10;99.90;;;;;;6382069;22;20383;-83
2023/02/10 08:16:25;;;;;;;45.20;28.10;;;14.80;99.90;;;;;;6383363;22;20412;-83
2023/02/10 08:19:14;;;;;;;41.63;26.30;;;15.50;99.90;;;;;;6354245;22;20376;-83
2023/02/10 08:21:43;;;;;;;40.20;26.23;;;15.90;99.90;;;;;;6378879;22;20461;-83
2023/02/10 08:24:24;;;;;;;;;;;;;;;;;;;;;
2023/02/10 08:26:55;;;;;;;40.03;26.13;;;16.50;99.90;;;;;;6378951;22;20497;-84
2023/02/10 08:29:23;;;;;;;39.17;26.60;;;17.00;99.90;;;;;;6350435;22;20372;-86
2023/02/10 08:35:48;;;;;;;;;;;;;;;;;;;;;
2023/02/10 08:38:16;;;;;;;38.00;28.40;;;18.80;99.90;;;;;;6385484;22;20833;-83
2023/02/10 08:40:56;;;;;;;39.20;27.97;;;19.30;99.90;;;;;;6354001;22;20715;-83
2023/02/10 08:43:37;;;;;;;39.23;28.33;;;19.90;99.90;;;;;;6358071;22;20377;-84
2023/02/10 08:46:31;;;;;;;37.80;26.80;;;20.60;99.90;;;;;;6385344;22;20395;-84
2023/02/10 08:49:05;;;;;;;35.97;28.43;;;21.30;99.90;;;;;;6385991;22;20369;-84
2023/02/10 08:51:50;;;;;;;41.20;29.07;;;21.70;99.90;;;;;;6384604;22;20356;-84
2023/02/10 08:54:39;;;;;;;39.77;29.53;;;21.70;99.90;;;;;;6386200;22;20355;-83
2023/02/10 08:57:28;;;;;;;39.00;27.73;;;20.70;99.90;;;;;;6353895;22;20429;-83
2023/02/10 09:04:24;;;;;;;42.63;28.90;;;17.50;99.90;;;;;;6076679;23;20440;-84
2023/02/10 09:07:01;;;;;;;42.20;30.10;;;16.80;99.90;;;;;;6022325;23;20391;-83
2023/02/10 09:20:30;;;;;;;45.97;29.90;;;14.80;99.90;;;;;;6074296;23;20392;-85
2023/02/10 09:23:15;;;;;;;47.60;30.77;;;14.30;99.90;;;;;;6043017;23;20477;-85
2023/02/10 09:28:45;;;;;;;49.77;33.83;;;13.80;99.90;;;;;;6367619;22;20438;-84
2023/02/10 09:31:33;;;;;;;52.20;33.53;;;13.60;99.90;;;;;;6374110;22;20354;-84
2023/02/10 09:34:11;;;;;;;46.40;31.27;;;13.50;99.90;;;;;;6373878;22;20408;-84
2023/02/10 09:40:17;;;;;;;59.10;32.30;;;13.70;99.90;;;;;;6283415;22;20381;-85
2023/02/10 09:43:01;;;;;;;46.97;32.80;;;14.00;99.90;;;;;;6344521;22;20423;-84
2023/02/10 09:46:25;;;;;;;48.00;31.53;;;14.60;99.90;;;;;;6343122;22;20396;-85
2023/02/10 09:52:53;;;;;;;46.30;32.33;;;15.60;99.90;;;;;;6213898;23;20386;-85
2023/02/10 09:55:36;;;;;;;46.77;31.80;;;16.20;99.90;;;;;;6189525;23;20436;-84
2023/02/10 09:58:22;;;;;;;50.20;33.67;;;16.50;99.90;;;;;;6214772;23;20421;-84
2023/02/10 10:01:21;;;;;;;;;;;;;;;;;;;;;
2023/02/10 10:04:32;;;;;;;47.67;32.50;;;16.00;99.90;;;;;;6200514;23;20935;-84
2023/02/10 10:07:45;;;;;;;47.00;32.03;;;16.10;99.90;;;;;;6121280;23;20744;-84
2023/02/10 10:18:33;;;;;;;45.53;34.43;;;19.70;99.90;;;;;;6207919;23;20996;-85
2023/02/10 10:35:22;;;;;;;52.50;38.33;;;19.80;99.90;;;;;;6359160;22;20448;-85
2023/02/10 10:37:48;;;;;;;54.43;37.00;;;19.10;99.90;;;;;;6340607;22;20433;-85
2023/02/10 10:40:27;;;;;;;51.83;37.23;;;18.40;99.90;;;;;;6368548;22;20369;-86
2023/02/10 10:43:02;;;;;;;49.83;33.73;;;17.80;99.90;;;;;;6367471;22;20147;-85
2023/02/10 10:45:57;;;;;;;48.60;33.83;;;17.30;99.90;;;;;;6293818;22;20526;-85
2023/02/10 10:48:49;;;;;;;50.43;33.60;;;16.80;99.90;;;;;;6366386;22;20397;-85
2023/02/10 10:51:18;;;;;;;44.80;32.60;;;16.30;99.90;;;;;;6245112;22;20472;-85
2023/02/10 10:54:36;;;;;;;53.00;33.40;;;16.00;99.90;;;;;;6269320;22;20433;-85
2023/02/10 10:57:13;;;;;;;58.13;35.17;;;15.70;99.90;;;;;;6311770;22;20429;-85
2023/02/10 10:59:51;;;;;;;49.13;34.10;;;15.50;99.90;;;;;;6335853;22;20678;-84
2023/02/10 11:02:24;;;;;;;50.40;31.57;;;15.40;99.90;;;;;;6334280;22;20381;-85
2023/02/10 11:05:23;;;;;;;;;;;;;;;;;;;;;
2023/02/10 11:11:09;;;;;;;46.03;30.70;;;15.90;99.90;;;;;;6334822;22;20429;-85
2023/02/10 11:14:20;;;;;;;43.00;31.37;;;17.00;99.90;;;;;;6335151;22;20392;-86
2023/02/10 11:17:28;;;;;;;50.73;33.00;;;18.20;99.90;;;;;;6252860;22;20441;-85
2023/02/10 11:23:19;;;;;;;45.70;30.90;;;20.40;99.90;;;;;;6347949;22;20380;-83
2023/02/10 11:26:08;;;;;;;43.90;31.33;;;21.20;99.90;;;;;;6349394;22;20562;-83
2023/02/10 11:31:36;;;;;;;38.10;29.00;;;22.20;99.90;;;;;;6378403;22;20535;-83
2023/02/10 11:37:35;;;;;;;42.10;32.90;;;22.70;99.90;;;;;;6374855;22;20463;-83
2023/02/10 11:40:03;;;;;;;40.87;30.43;;;22.70;99.90;;;;;;6382160;22;20448;-83
2023/02/10 11:42:34;;;;;;;39.40;29.00;;;22.60;99.90;;;;;;6381745;22;20399;-83
2023/02/10 11:45:44;;;;;;;;;;;;;;;;;;;;;
2023/02/10 11:48:20;;;;;;;36.07;29.00;;;23.10;99.90;;;;;;6350725;22;20446;-83
2023/02/10 11:54:35;;;;;;;34.70;26.60;;;23.10;99.90;;;;;;6188872;23;20382;-85
2023/02/10 12:00:43;;;;;;;32.70;25.93;;;23.20;99.90;;;;;;6200328;23;20380;-84
2023/02/10 12:03:11;;;;;;;33.70;26.27;;;23.40;99.90;;;;;;6229189;22;20402;-82
2023/02/10 12:06:06;;;;;;;34.70;26.23;;;23.40;99.90;;;;;;6297938;22;20418;-83
2023/02/10 12:08:47;;;;;;;32.43;26.97;;;23.40;99.90;;;;;;6323751;22;20366;-83
2023/02/10 12:11:38;;;;;;;34.70;26.20;;;23.50;99.90;;;;;;6300646;22;20370;-84
2023/02/10 12:17:24;;;;;;;30.50;23.40;;;23.60;99.90;;;;;;6303133;22;20400;-82
2023/02/10 12:20:08;;;;;;;32.63;26.60;;;23.80;99.90;;;;;;6325485;22;20376;-83
2023/02/10 12:22:56;;;;;;;34.17;22.60;;;23.50;99.90;;;;;;6325576;22;20787;-84
2023/02/10 12:25:29;;;;;;;26.10;22.50;;;23.30;99.90;;;;;;6324712;22;20414;-84
2023/02/10 12:28:27;;;;;;;32.20;24.33;;;22.60;99.90;;;;;;6298084;22;20395;-83
2023/02/10 12:31:30;;;;;;;32.30;23.67;;;21.60;99.90;;;;;;6324842;22;20664;-82
2023/02/10 12:34:28;;;;;;;29.03;20.87;;;21.30;99.90;;;;;;6323938;22;20363;-83
2023/02/10 12:37:02;;;;;;;28.80;22.47;;;21.50;99.90;;;;;;6244585;22;20587;-83
2023/02/10 12:40:11;;;;;;;26.43;21.50;;;21.70;99.90;;;;;;6325088;22;20701;-83
2023/02/10 12:43:01;;;;;;;29.13;23.43;;;21.90;99.90;;;;;;6217197;22;20388;-83
2023/02/10 12:45:53;;;;;;;30.13;21.97;;;21.40;99.90;;;;;;6339074;22;20438;-82
2023/02/10 12:48:56;;;;;;;26.70;22.23;;;21.20;99.90;;;;;;6355304;22;20376;-83
2023/02/10 12:52:07;;;;;;;31.53;22.47;;;21.10;99.90;;;;;;6355244;22;20686;-83
2023/02/10 12:55:13;;;;;;;26.97;18.63;;;20.80;99.90;;;;;;6356127;22;20478;-83
2023/02/10 12:57:58;;;;;;;28.27;21.37;;;20.90;99.90;;;;;;6309219;22;20392;-83
2023/02/10 13:00:39;;;;;;;28.43;21.30;;;20.80;99.90;;;;;;6328447;22;20764;-83
2023/02/10 13:03:22;;;;;;;22.50;19.07;;;20.60;99.90;;;;;;6330475;22;20434;-83
2023/02/10 13:06:16;;;;;;;24.53;18.53;;;20.40;99.90;;;;;;6328068;22;20456;-83
2023/02/10 13:09:39;;;;;;;25.23;18.47;;;20.30;99.90;;;;;;6328765;22;20847;-82
2023/02/10 13:12:18;;;;;;;25.53;18.50;;;20.10;99.90;;;;;;6316958;22;20384;-82
2023/02/10 13:14:47;;;;;;;25.70;20.10;;;20.10;99.90;;;;;;6356985;22;20414;-83
2023/02/10 13:17:15;;;;;;;24.47;19.03;;;20.00;99.90;;;;;;6357044;22;20376;-83
2023/02/10 13:20:05;;;;;;;28.80;20.37;;;19.90;99.90;;;;;;6328157;22;20449;-82
2023/02/10 13:22:31;;;;;;;27.50;20.07;;;19.90;99.90;;;;;;6356694;22;20391;-82
2023/02/10 13:25:22;;;;;;;25.20;19.60;;;19.60;99.90;;;;;;6354702;22;20390;-83
2023/02/10 13:28:16;;;;;;;26.37;20.43;;;19.10;99.90;;;;;;6356133;22;20139;-82
2023/02/10 13:31:15;;;;;;;31.60;19.53;;;18.70;99.90;;;;;;6355813;22;20354;-82
2023/02/10 13:37:02;;;;;;;23.53;18.87;;;17.90;99.90;;;;;;6357299;22;20443;-82
2023/02/10 13:39:30;;;;;;;28.60;19.90;;;17.50;99.90;;;;;;6356686;22;20377;-83
2023/02/10 13:42:24;;;;;;;24.23;18.60;;;17.30;99.90;;;;;;6352276;22;20374;-83
2023/02/10 13:45:20;;;;;;;24.17;19.23;;;17.20;99.90;;;;;;6357526;22;20391;-82
2023/02/10 13:47:45;;;;;;;25.87;19.90;;;17.10;99.90;;;;;;6355262;22;20360;-82
2023/02/10 13:50:48;;;;;;;27.47;20.47;;;17.30;99.90;;;;;;6356290;22;20410;-83
2023/02/10 13:53:35;;;;;;;28.60;19.30;;;17.10;99.90;;;;;;6356025;22;20189;-83
2023/02/10 13:56:18;;;;;;;28.10;18.50;;;16.80;99.90;;;;;;6355550;22;20946;-82
2023/02/10 13:59:03;;;;;;;37.87;21.70;;;16.50;99.90;;;;;;6356892;22;20396;-84
2023/02/10 14:01:48;;;;;;;30.90;19.77;;;16.30;99.90;;;;;;6356067;22;20367;-82
2023/02/10 14:04:48;;;;;;;25.23;20.03;;;16.10;99.90;;;;;;6330899;22;20352;-84
2023/02/10 14:10:24;;;;;;;27.00;19.67;;;16.70;99.90;;;;;;6336387;22;20380;-82
2023/02/10 14:13:29;;;;;;;22.33;18.23;;;17.10;99.90;;;;;;6359228;22;20376;-83
2023/02/10 14:16:04;;;;;;;24.30;16.93;;;17.40;99.90;;;;;;6332305;22;20413;-82
2023/02/10 14:18:34;;;;;;;21.00;16.13;;;17.40;99.90;;;;;;6357634;22;20355;-84
2023/02/10 14:21:08;;;;;;;19.77;15.07;;;17.50;99.90;;;;;;6330128;22;20379;-83
2023/02/10 14:23:35;;;;;;;19.20;15.13;;;17.40;99.90;;;;;;6358343;22;20371;-83
2023/02/10 14:26:28;;;;;;;20.80;14.17;;;17.50;99.90;;;;;;6331335;22;20510;-83
2023/02/10 14:28:58;;;;;;;19.00;15.73;;;17.40;99.90;;;;;;6330782;22;20400;-83
2023/02/10 14:31:33;;;;;;;21.33;15.10;;;17.50;99.90;;;;;;6332354;22;20385;-83
2023/02/10 14:34:01;;;;;;;16.00;13.50;;;17.20;99.90;;;;;;6331390;22;20382;-82
2023/02/10 14:36:32;;;;;;;19.47;14.37;;;16.80;99.90;;;;;;6330318;22;20407;-83
2023/02/10 14:39:10;;;;;;;;;;;;;;;;;;;;;
2023/02/10 14:41:36;;;;;;;19.40;13.47;;;16.50;99.90;;;;;;6357371;22;20347;-82
2023/02/10 14:44:31;;;;;;;21.57;13.60;;;16.30;99.90;;;;;;6332490;22;20844;-85
2023/02/10 14:46:57;;;;;;;15.97;12.97;;;15.90;99.90;;;;;;6358854;22;20188;-83
2023/02/10 14:49:35;;;;;;;21.90;14.33;;;15.70;99.90;;;;;;6359484;22;20394;-85
2023/02/10 14:52:01;;;;;;;17.33;14.30;;;15.40;99.90;;;;;;6331961;22;20365;-83
2023/02/10 14:54:47;;;;;;;21.87;16.73;;;15.10;99.90;;;;;;6360882;22;20377;-83
2023/02/10 14:57:25;;;;;;;29.50;22.00;;;14.90;99.90;;;;;;6359181;22;20379;-84
2023/02/10 15:00:00;;;;;;;23.23;17.20;;;14.70;99.90;;;;;;6359615;22;20337;-82
2023/02/10 15:02:30;;;;;;;26.03;16.27;;;14.50;99.90;;;;;;6359200;22;20451;-82
2023/02/10 15:05:09;;;;;;;24.80;17.57;;;14.40;99.90;;;;;;6331037;22;20484;-82
2023/02/10 15:07:42;;;;;;;22.07;15.00;;;14.40;99.90;;;;;;6330769;22;20402;-83
2023/02/10 15:10:22;;;;;;;27.33;14.87;;;14.20;99.90;;;;;;6358327;22;20341;-83
2023/02/10 15:12:59;;;;;;;21.20;16.27;;;14.10;99.90;;;;;;6329024;22;20426;-85
2023/02/10 15:16:11;;;;;;;20.83;13.07;;;13.90;99.90;;;;;;6356779;22;20406;-82
2023/02/10 15:18:40;;;;;;;20.57;15.33;;;13.90;99.90;;;;;;6355389;22;20372;-82
2023/02/10 15:21:34;;;;;;;22.40;16.70;;;14.00;99.90;;;;;;6357933;22;20352;-82
2023/02/10 15:24:07;;;;;;;22.13;14.93;;;14.10;99.90;;;;;;6329256;22;20379;-82
2023/02/10 15:26:39;;;;;;;20.20;15.00;;;14.10;99.90;;;;;;6355771;22;20513;-82
2023/02/10 15:29:15;;;;;;;26.27;18.17;;;13.80;99.90;;;;;;6331174;22;20369;-82
2023/02/10 15:32:02;;;;;;;18.87;14.43;;;13.70;99.90;;;;;;6329095;22;20379;-83
2023/02/10 15:34:39;;;;;;;28.47;15.20;;;13.40;99.90;;;;;;6328671;22;20431;-82
2023/02/10 15:37:32;;;;;;;18.87;14.33;;;13.20;99.90;;;;;;6328471;22;20377;-82
2023/02/10 15:40:04;;;;;;;21.03;16.00;;;12.90;99.90;;;;;;6356062;22;20820;-83
2023/02/10 15:42:48;;;;;;;19.67;14.23;;;12.80;99.90;;;;;;6328844;22;20377;-82
2023/02/10 15:45:36;;;;;;;22.70;14.20;;;12.70;99.90;;;;;;6358159;22;20411;-83
2023/02/10 15:48:17;;;;;;;26.00;16.10;;;12.60;99.90;;;;;;6358986;22;20408;-82
2023/02/10 15:51:03;;;;;;;22.63;16.90;;;12.50;99.90;;;;;;6332034;22;20433;-83
2023/02/10 15:53:36;;;;;;;21.40;15.20;;;12.50;99.90;;;;;;6331889;22;20382;-84
2023/02/10 15:56:01;;;;;;;25.30;18.63;;;12.40;99.90;;;;;;6330603;22;20393;-86
2023/02/10 15:58:29;;;;;;;27.10;16.93;;;12.40;99.90;;;;;;6357118;22;20389;-84
2023/02/10 16:01:15;;;;;;;24.93;15.50;;;12.20;99.90;;;;;;6330086;22;20219;-84
2023/02/10 16:03:49;;;;;;;22.93;15.70;;;12.20;99.90;;;;;;6339906;22;20395;-86
2023/02/10 16:06:20;;;;;;;23.53;16.40;;;12.20;99.90;;;;;;6358297;22;20592;-85
2023/02/10 16:08:48;;;;;;;21.83;15.93;;;12.20;99.90;;;;;;6357108;22;20437;-83
2023/02/10 16:11:13;;;;;;;26.97;17.60;;;12.00;99.90;;;;;;6330341;22;20441;-84
2023/02/10 16:13:39;;;;;;;23.70;16.40;;;11.90;99.90;;;;;;6330400;22;20404;-84
2023/02/10 16:16:16;;;;;;;23.90;16.17;;;11.70;99.90;;;;;;6358360;22;20194;-84
2023/02/10 16:18:45;;;;;;;25.90;17.63;;;11.60;99.90;;;;;;6327712;22;20381;-84
2023/02/10 16:21:14;;;;;;;25.93;17.40;;;11.40;99.90;;;;;;6357078;22;20370;-84
2023/02/10 16:23:47;;;;;;;26.13;17.47;;;11.20;99.90;;;;;;6357623;22;20389;-85
2023/02/10 16:26:36;;;;;;;22.47;15.73;;;11.00;99.90;;;;;;6359358;22;20401;-84
2023/02/10 16:29:13;;;;;;;24.87;17.83;;;10.90;99.90;;;;;;6344262;22;20385;-85
2023/02/10 16:31:57;;;;;;;26.77;17.53;;;10.80;99.90;;;;;;6331863;22;20385;-85
2023/02/10 16:34:34;;;;;;;28.57;16.17;;;10.60;99.90;;;;;;6330901;22;20377;-85
2023/02/10 16:37:03;;;;;;;32.87;18.27;;;10.50;99.90;;;;;;6327071;22;20661;-83
2023/02/10 16:39:31;;;;;;;26.10;16.50;;;10.40;99.90;;;;;;6328812;22;20392;-84
2023/02/10 16:42:02;;;;;;;24.50;16.30;;;10.30;99.90;;;;;;6327097;22;20471;-82
2023/02/10 16:44:30;;;;;;;27.80;17.47;;;10.20;99.90;;;;;;6330496;22;20396;-84
2023/02/10 16:46:58;;;;;;;27.00;16.63;;;10.10;99.90;;;;;;6358349;22;20420;-84
2023/02/10 16:49:24;;;;;;;33.10;19.70;;;10.00;99.90;;;;;;6332152;22;20385;-85
2023/02/10 16:51:49;;;;;;;28.20;17.80;;;10.00;99.90;;;;;;6355129;22;20399;-84
2023/02/10 16:54:18;;;;;;;35.63;20.40;;;9.90;99.90;;;;;;6357514;22;20170;-83
2023/02/10 16:56:44;;;;;;;30.57;20.33;;;9.80;99.90;;;;;;6357022;22;20216;-86
2023/02/10 16:59:22;;;;;;;37.43;18.90;;;9.80;99.90;;;;;;6358169;22;20373;-84
2023/02/10 17:01:57;;;;;;;28.30;18.93;;;9.70;99.90;;;;;;6330930;22;20139;-83
2023/02/10 17:04:41;;;;;;;45.47;26.10;;;9.60;99.90;;;;;;6332588;22;20379;-85
2023/02/10 17:07:21;;;;;;;;;;;;;;;;;;;;;
2023/02/10 17:09:47;;;;;;;43.63;26.77;;;9.40;99.90;;;;;;6358097;22;20471;-84
2023/02/10 17:12:19;;;;;;;44.10;23.00;;;9.40;99.90;;;;;;6332002;22;20377;-84
2023/02/10 17:15:20;;;;;;;;;;;;;;;;;;;;;
2023/02/10 17:17:46;;;;;;;41.27;22.17;;;9.20;99.90;;;;;;6358976;22;20158;-85
2023/02/10 17:20:49;;;;;;;41.30;23.57;;;9.20;99.90;;;;;;6356968;22;20388;-84
2023/02/10 17:23:23;;;;;;;46.50;25.53;;;9.30;99.90;;;;;;6355995;22;20135;-84
2023/02/10 17:25:53;;;;;;;43.28;25.33;;;9.30;1.00;;;;;;6330935;22;20496;-87
2023/02/10 17:28:43;;;;;;;;;;;;;;;;;;;;;
2023/02/10 17:31:24;;;;;;;40.53;24.00;;;9.30;1.00;;;;;;6360261;22;20388;-86
2023/02/10 17:33:56;;;;;;;43.17;22.92;;;9.30;1.00;;;;;;6333240;22;20158;-85
2023/02/10 17:36:48;;;;;;;45.00;25.63;;;9.30;1.00;;;;;;6359915;22;20167;-87
2023/02/10 17:41:58;;;;;;;48.80;27.95;;;9.10;1.00;;;;;;6358847;22;20178;-86
2023/02/10 17:44:24;;;;;;;43.60;24.75;;;9.00;1.00;;;;;;6333631;22;20155;-86
2023/02/10 17:47:09;;;;;;;44.43;24.13;;;8.90;1.00;;;;;;6331725;22;20197;-86
2023/02/10 17:49:49;;;;;;;40.00;23.25;;;8.80;1.00;;;;;;6333106;22;20139;-85
2023/02/10 17:52:23;;;;;;;44.20;24.90;;;8.70;1.00;;;;;;6333348;22;20146;-86
2023/02/10 17:54:55;;;;;;;44.17;24.90;;;8.70;1.00;;;;;;6332957;22;20178;-85
2023/02/10 17:57:20;;;;;;;46.90;25.45;;;8.60;1.00;;;;;;6331091;22;20159;-85
2023/02/10 17:59:46;;;;;;;45.43;24.57;;;8.60;11.90;;;;;;6334073;22;20159;-86
2023/02/10 18:02:15;;;;;;;52.20;25.77;;;8.50;66.10;;;;;;6331696;22;20372;-85
2023/02/10 18:04:46;;;;;;;46.42;23.88;;;8.50;61.20;;;;;;6332352;22;20158;-86
2023/02/10 18:07:27;;;;;;;42.17;22.00;;;8.50;99.90;;;;;;6358223;22;20565;-86
2023/02/10 18:10:02;;;;;;;43.30;23.88;;;8.40;99.90;;;;;;6360331;22;20137;-85
2023/02/10 18:12:27;;;;;;;51.40;24.23;;;8.40;99.90;;;;;;6330546;22;20227;-85
2023/02/10 18:14:56;;;;;;;44.77;23.47;;;8.40;99.90;;;;;;6331679;22;20178;-87
2023/02/10 18:17:43;;;;;;;41.75;23.70;;;8.30;99.90;;;;;;6331784;22;20158;-86
2023/02/10 18:20:12;;;;;;;38.33;21.30;;;8.30;99.90;;;;;;6331010;22;20389;-87
2023/02/10 18:22:37;;;;;;;39.53;23.50;;;8.30;99.90;;;;;;6333123;22;20181;-86
2023/02/10 18:25:21;;;;;;;40.60;23.63;;;8.30;99.90;;;;;;6331572;22;20258;-85
2023/02/10 18:27:47;;;;;;;46.17;23.92;;;8.30;99.90;;;;;;6332016;22;20158;-86
2023/02/10 18:30:19;;;;;;;41.30;22.30;;;8.30;99.90;;;;;;6331912;22;20685;-85
2023/02/10 18:32:50;;;;;;;48.70;24.27;;;8.30;99.90;;;;;;6330350;22;20151;-85
2023/02/10 18:35:37;;;;;;;47.80;26.05;;;8.30;1.00;;;;;;6331565;22;20189;-87
2023/02/10 18:38:13;;;;;;;54.05;27.23;;;8.20;1.00;;;;;;6330030;22;20191;-85
2023/02/10 18:40:58;;;;;;;43.50;23.88;;;8.20;1.00;;;;;;6331052;22;20179;-85
2023/02/10 18:43:42;;;;;;;45.17;23.92;;;8.30;1.00;;;;;;6332287;22;20151;-86
2023/02/10 18:46:28;;;;;;;44.92;23.50;;;8.20;1.00;;;;;;6331539;22;20232;-86
2023/02/10 18:48:54;;;;;;;50.15;27.25;;;8.20;1.00;;;;;;6357714;22;20139;-86
2023/02/10 18:51:22;;;;;;;55.10;26.85;;;8.20;1.00;;;;;;6330724;22;20213;-85
2023/02/10 18:53:56;;;;;;;46.17;25.58;;;8.10;1.00;;;;;;6329321;22;20194;-86
2023/02/10 18:56:50;;;;;;;47.38;26.50;;;8.10;1.00;;;;;;6333391;22;20178;-86
2023/02/10 19:03:07;;;;;;;44.28;25.17;;;8.10;99.90;;;;;;6357598;22;20208;-85
2023/02/10 19:05:41;;;;;;;56.25;25.92;;;8.10;99.90;;;;;;6328523;22;20190;-86
2023/02/10 19:11:09;;;;;;;45.42;25.40;;;8.10;99.90;;;;;;6358397;22;20157;-85
2023/02/10 19:16:35;;;;;;;47.03;25.20;;;8.00;99.90;;;;;;6315349;22;20171;-85
2023/02/10 19:19:17;;;;;;;52.85;26.23;;;8.00;99.90;;;;;;6331610;22;20171;-86
2023/02/10 19:22:01;;;;;;;49.33;24.73;;;8.00;99.90;;;;;;6329652;22;20147;-85
2023/02/10 19:24:37;;;;;;;49.75;25.30;;;8.00;99.90;;;;;;6357045;22;20153;-83
2023/02/10 19:31:05;;;;;;;46.63;25.25;;;7.90;99.90;;;;;;6357953;22;20263;-85
2023/02/10 19:33:44;;;;;;;49.20;24.20;;;7.90;1.00;;;;;;6326456;22;20154;-86
2023/02/10 19:36:17;;;;;;;51.28;25.27;;;7.90;1.00;;;;;;6331652;22;20166;-86
2023/02/10 19:39:12;;;;;;;45.90;25.48;;;7.90;1.00;;;;;;6329871;22;20140;-85
2023/02/10 19:41:55;;;;;;;53.65;26.27;;;7.90;1.00;;;;;;6297040;22;20222;-85
2023/02/10 19:44:35;;;;;;;43.75;23.38;;;7.90;1.00;;;;;;6329822;22;20173;-86
2023/02/10 19:47:09;;;;;;;48.58;24.67;;;8.00;99.90;;;;;;6330581;22;20243;-85
2023/02/10 19:50:03;;;;;;;49.40;25.00;;;8.00;99.90;;;;;;6331371;22;20147;-85
2023/02/10 19:52:47;;;;;;;45.28;23.40;;;8.00;99.90;;;;;;6346820;22;20159;-85
2023/02/10 19:55:32;;;;;;;;;;;;;;;;;;;;;
2023/02/10 19:58:12;;;;;;;48.17;24.52;;;7.90;99.90;;;;;;6390046;22;20173;-85
2023/02/10 20:04:18;;;;;;;44.38;24.33;;;7.90;99.90;;;;;;6217462;23;20156;-85
2023/02/10 20:07:07;;;;;;;45.10;23.58;;;7.90;99.90;;;;;;6200748;23;20832;-85
2023/02/10 20:10:32;;;;;;;;;;;;;;;;;;;;;
2023/02/10 20:22:44;;;;;;;45.03;22.60;;;7.90;99.90;;;;;;6420413;22;20153;-84
2023/02/10 20:26:16;;;;;;;48.00;23.77;;;7.90;99.90;;;;;;6262018;23;20222;-83
2023/02/10 20:29:40;;;;;;;40.58;22.13;;;7.90;1.00;;;;;;6263797;22;20132;-84
2023/02/10 20:35:50;;;;;;;40.83;23.05;;;7.80;1.00;;;;;;6329691;22;20178;-84
2023/02/10 20:39:02;;;;;;;42.22;22.60;;;7.90;1.00;;;;;;6324775;22;20237;-85
2023/02/10 20:42:29;;;;;;;;;;;;;;;;;;;;;
2023/02/10 20:45:23;;;;;;;40.17;22.25;;;7.90;1.00;;;;;;6372766;22;20174;-84
2023/02/10 20:48:22;;;;;;;;;;;;;;;;;;;;;
2023/02/10 20:51:25;;;;;;;44.00;22.02;;;7.90;1.00;;;;;;6389060;22;20157;-85
2023/02/10 20:54:48;;;;;;;45.88;22.95;;;7.90;1.00;;;;;;6363566;22;20189;-84
2023/02/10 20:57:40;;;;;;;39.90;21.80;;;7.90;1.00;;;;;;6363470;22;20150;-85
2023/02/10 21:00:26;;;;;;;39.92;23.35;;;8.00;1.00;;;;;;6389361;22;20150;-86
2023/02/10 21:03:25;;;;;;;54.25;25.70;;;8.00;1.00;;;;;;6354493;22;20154;-85
2023/02/10 21:06:50;;;;;;;37.35;23.40;;;8.00;1.00;;;;;;6354727;22;20254;-85
2023/02/10 21:10:02;;;;;;;;;;;;;;;;;;;;;
2023/02/10 21:19:34;;;;;;;;;;;;;;;;;;;;;
2023/02/10 21:22:11;;;;;;;42.35;23.70;;;8.00;37.70;;;;;;6381928;22;20150;-84
2023/02/10 21:35:50;;;;;;;;;;;;;;;;;;;;;
2023/02/10 21:39:16;;;;;;;44.22;25.45;;;8.00;99.90;;;;;;6390726;22;20154;-84
2023/02/10 22:20:06;;;;;;;34.05;21.05;;;8.10;1.00;;;;;;6371973;22;20165;-83
2023/02/10 22:22:40;;;;;;;35.20;20.90;;;8.20;1.00;;;;;;6373336;22;20504;-85
2023/02/10 22:25:16;;;;;;;40.75;22.48;;;8.10;1.00;;;;;;6375008;22;20652;-83
2023/02/10 22:28:04;;;;;;;35.92;22.67;;;8.20;1.00;;;;;;6372385;22;20190;-83
2023/02/10 22:31:19;;;;;;;;;;;;;;;;;;;;;
2023/02/10 22:33:56;;;;;;;40.65;21.30;;;8.20;1.00;;;;;;6282209;22;20634;-83
2023/02/10 22:43:24;;;;;;;37.53;21.88;;;8.10;99.90;;;;;;6374226;22;20145;-83
2023/02/10 22:46:11;;;;;;;33.47;21.83;;;8.20;99.90;;;;;;6364477;22;20174;-84
2023/02/10 23:06:40;;;;;;;38.20;20.98;;;8.10;99.90;;;;;;6350769;22;20197;-85
2023/02/10 23:10:01;;;;;;;26.05;18.45;;;8.20;99.90;;;;;;6342350;22;20155;-84
2023/02/10 23:12:57;;;;;;;31.58;19.27;;;8.20;99.90;;;;;;6186980;23;20605;-84
2023/02/10 23:16:14;;;;;;;31.30;18.80;;;8.10;99.90;;;;;;6333834;22;20174;-84
2023/02/10 23:23:42;;;;;;;30.50;18.77;;;8.10;99.90;;;;;;6160741;23;20164;-85
2023/02/10 23:26:46;;;;;;;30.45;20.38;;;8.10;99.90;;;;;;6283760;22;20192;-85
2023/02/10 23:29:16;;;;;;;28.67;19.23;;;8.10;99.90;;;;;;6211103;23;20168;-84
2023/02/10 23:32:08;;;;;;;30.55;19.30;;;8.10;99.90;;;;;;6168785;23;20604;-85
2023/02/10 23:34:39;;;;;;;25.90;18.30;;;8.10;99.90;;;;;;6186158;23;20169;-84